METAR Data
IDs: Format: Raw Decoded Include TAF

Data at: 1837 UTC 22 May 2019

METAR for:KHCR (Heber City Muni, UT, US)
Text:KHCR 221815Z AUTO 27003KT 10SM CLR 07/02 A2969 RMK AO2
Temperature: 7.0°C ( 45°F)
Dewpoint: 2.0°C ( 36°F) [RH = 70%]
Pressure (altimeter):29.69 inches Hg (1005.5 mb)
Winds:from the W (270 degrees) at 3 MPH (3 knots; 1.5 m/s)
Visibility:10 or more sm (16+ km)
Ceiling:at least 12,000 feet AGL
Clouds:sky clear below 12,000 feet AGL
QC Flag:automated observation with no human augmentation